Time;durP1;ratioP1;P1;durP2;ratioP2;P2;SDS_P1;SDS_P2;PMS_P1;PMS_P2;Temp;Humidity;BMP_temperature;BMP_pressure;BME280_temperature;BME280_humidity;BME280_pressure;Samples;Min_cycle;Max_cycle;Signal;HPM_P1;HPM_P2
2023/10/20 00:00:58;;;;;;;20.85;15.65;;;14.50;99.90;;;;;;5011372;28;20563;-55
2023/10/20 00:03:24;;;;;;;22.13;15.75;;;14.40;99.90;;;;;;5011502;28;20175;-55
2023/10/20 00:05:49;;;;;;;17.67;15.05;;;14.30;99.90;;;;;;5011756;28;20176;-55
2023/10/20 00:08:15;;;;;;;22.20;16.02;;;14.30;99.90;;;;;;5011851;28;20200;-54
2023/10/20 00:10:41;;;;;;;19.52;15.15;;;14.30;99.90;;;;;;5011962;28;20234;-55
2023/10/20 00:13:06;;;;;;;21.15;16.30;;;14.50;99.90;;;;;;5011805;28;20168;-55
2023/10/20 00:15:33;;;;;;;23.60;15.68;;;14.50;99.90;;;;;;5011539;28;20226;-54
2023/10/20 00:17:59;;;;;;;20.92;16.10;;;14.50;99.90;;;;;;5011538;28;20211;-55
2023/10/20 00:20:24;;;;;;;20.38;15.23;;;14.50;99.90;;;;;;5011560;28;20585;-55
2023/10/20 00:22:50;;;;;;;21.08;15.43;;;14.50;99.90;;;;;;5011384;28;20172;-55
2023/10/20 00:25:17;;;;;;;21.23;16.25;;;14.50;99.90;;;;;;5011320;28;20584;-55
2023/10/20 00:27:42;;;;;;;20.00;15.77;;;14.50;99.90;;;;;;5011668;28;20632;-55
2023/10/20 00:30:09;;;;;;;19.05;15.07;;;14.30;99.90;;;;;;5011311;28;20215;-60
2023/10/20 00:32:36;;;;;;;19.25;15.45;;;14.30;99.90;;;;;;5011626;28;20506;-59
2023/10/20 00:35:04;;;;;;;22.38;15.73;;;14.30;99.90;;;;;;5011503;28;20572;-57
2023/10/20 00:37:31;;;;;;;25.42;16.33;;;14.50;99.90;;;;;;5011331;28;20173;-60
2023/10/20 00:39:57;;;;;;;21.45;14.82;;;14.50;99.90;;;;;;5011388;28;20172;-60
2023/10/20 00:42:23;;;;;;;20.67;16.40;;;14.30;99.90;;;;;;5011498;28;20179;-55
2023/10/20 00:44:48;;;;;;;22.23;15.95;;;14.40;99.90;;;;;;5011509;28;20668;-57
2023/10/20 00:47:16;;;;;;;21.88;16.17;;;14.30;99.90;;;;;;5011769;28;20226;-55
2023/10/20 00:49:42;;;;;;;24.90;16.00;;;14.50;99.90;;;;;;5010311;28;20242;-57
2023/10/20 00:52:09;;;;;;;21.77;16.13;;;14.40;99.90;;;;;;5011501;28;20172;-55
2023/10/20 00:54:35;;;;;;;27.90;16.70;;;14.50;99.90;;;;;;5011266;28;20161;-58
2023/10/20 00:57:01;;;;;;;21.17;16.60;;;14.30;99.90;;;;;;5011233;28;20510;-57
2023/10/20 00:59:27;;;;;;;21.88;17.17;;;14.50;99.90;;;;;;5011376;28;20234;-60
2023/10/20 01:01:54;;;;;;;21.85;16.92;;;14.30;99.90;;;;;;5011108;28;20593;-57
2023/10/20 01:04:19;;;;;;;23.40;16.45;;;14.50;99.90;;;;;;5010942;28;20639;-57
2023/10/20 01:06:48;;;;;;;21.88;16.00;;;14.50;99.90;;;;;;5011131;28;20199;-56
2023/10/20 01:09:26;;;;;;;20.73;16.73;;;14.30;99.90;;;;;;5011584;28;20223;-60
2023/10/20 01:11:52;;;;;;;25.40;17.60;;;14.30;99.90;;;;;;5011336;28;20176;-59
2023/10/20 01:14:18;;;;;;;23.95;17.88;;;14.50;99.90;;;;;;5014197;28;20242;-59
2023/10/20 01:16:44;;;;;;;23.23;17.60;;;14.50;99.90;;;;;;5015003;28;20172;-60
2023/10/20 01:19:09;;;;;;;22.25;17.08;;;14.30;99.90;;;;;;5014697;28;20183;-58
2023/10/20 01:21:35;;;;;;;22.60;17.58;;;14.40;99.90;;;;;;5013074;28;20164;-56
2023/10/20 01:24:02;;;;;;;27.30;18.85;;;14.40;99.90;;;;;;5014287;28;20211;-56
2023/10/20 01:26:29;;;;;;;29.13;18.60;;;14.50;99.90;;;;;;5014313;28;20165;-55
2023/10/20 01:28:55;;;;;;;25.30;18.80;;;14.30;99.90;;;;;;5014250;28;20197;-56
2023/10/20 01:31:22;;;;;;;29.25;19.52;;;14.40;99.90;;;;;;5014366;28;20222;-55
2023/10/20 01:33:48;;;;;;;26.80;19.27;;;14.30;99.90;;;;;;5014468;28;20289;-56
2023/10/20 01:36:14;;;;;;;27.50;18.85;;;14.50;99.90;;;;;;5014671;28;20267;-55
2023/10/20 01:38:39;;;;;;;24.77;19.27;;;14.30;99.90;;;;;;5013707;28;20168;-57
2023/10/20 01:41:06;;;;;;;23.80;17.90;;;14.40;99.90;;;;;;5013948;28;20782;-55
2023/10/20 01:43:32;;;;;;;25.88;17.65;;;14.50;99.90;;;;;;5014227;28;20258;-55
2023/10/20 01:45:57;;;;;;;27.42;18.58;;;14.40;99.90;;;;;;5013934;28;20251;-60
2023/10/20 01:48:23;;;;;;;24.13;19.10;;;14.30;99.90;;;;;;5013841;28;20553;-61
2023/10/20 01:50:48;;;;;;;21.77;17.48;;;14.40;99.90;;;;;;5013955;28;20536;-61
2023/10/20 01:53:14;;;;;;;29.13;18.67;;;14.50;99.90;;;;;;5014307;28;20577;-59
2023/10/20 01:55:40;;;;;;;25.30;17.77;;;14.30;99.90;;;;;;5013796;28;20573;-61
2023/10/20 01:58:06;;;;;;;25.63;18.13;;;14.60;99.90;;;;;;5013680;28;20171;-61
2023/10/20 02:00:31;;;;;;;22.70;17.48;;;14.40;99.90;;;;;;5013596;28;20180;-61
2023/10/20 02:02:57;;;;;;;26.83;17.77;;;14.50;99.90;;;;;;5013576;28;20226;-60
2023/10/20 02:05:23;;;;;;;26.30;17.13;;;14.50;99.90;;;;;;5013632;28;20214;-60
2023/10/20 02:07:49;;;;;;;23.38;17.65;;;14.60;99.90;;;;;;5013757;28;20258;-60
2023/10/20 02:10:15;;;;;;;22.45;16.88;;;14.60;99.90;;;;;;5013780;28;20223;-61
2023/10/20 02:12:41;;;;;;;24.00;17.77;;;14.50;99.90;;;;;;5014022;28;20191;-61
2023/10/20 02:15:07;;;;;;;23.52;16.73;;;14.50;99.90;;;;;;5013379;28;20176;-61
2023/10/20 02:17:34;;;;;;;23.60;17.45;;;14.40;99.90;;;;;;5013306;28;20560;-61
2023/10/20 02:20:00;;;;;;;24.67;17.52;;;14.50;99.90;;;;;;5013265;28;20224;-61
2023/10/20 02:22:26;;;;;;;21.83;16.58;;;14.50;99.90;;;;;;5013253;28;20168;-58
2023/10/20 02:24:52;;;;;;;24.42;17.33;;;14.50;99.90;;;;;;5012756;28;20172;-60
2023/10/20 02:27:18;;;;;;;22.00;16.50;;;14.70;99.90;;;;;;5013330;28;20659;-59
2023/10/20 02:29:44;;;;;;;23.35;16.25;;;14.70;99.90;;;;;;5013536;28;20207;-60
2023/10/20 02:32:12;;;;;;;22.85;17.85;;;14.60;99.90;;;;;;5013157;28;20176;-58
2023/10/20 02:34:37;;;;;;;26.27;17.00;;;14.70;99.90;;;;;;5011702;28;20302;-60
2023/10/20 02:37:03;;;;;;;25.67;16.45;;;14.50;99.90;;;;;;5012885;28;20618;-60
2023/10/20 02:39:28;;;;;;;21.83;16.27;;;14.70;99.90;;;;;;5012798;28;20172;-60
2023/10/20 02:41:54;;;;;;;22.42;15.95;;;14.60;99.90;;;;;;5012844;28;20242;-61
2023/10/20 02:44:21;;;;;;;23.52;15.85;;;14.50;99.90;;;;;;5012897;28;20200;-61
2023/10/20 02:46:47;;;;;;;19.90;15.82;;;14.70;99.90;;;;;;5012708;28;20171;-61
2023/10/20 02:49:12;;;;;;;22.25;15.52;;;14.60;99.90;;;;;;5013106;28;20207;-61
2023/10/20 02:51:39;;;;;;;23.10;16.27;;;14.60;99.90;;;;;;5012636;28;20247;-61
2023/10/20 02:54:05;;;;;;;21.80;16.08;;;14.50;99.90;;;;;;5012852;28;20179;-58
2023/10/20 02:56:30;;;;;;;20.35;14.60;;;14.50;99.90;;;;;;5012598;28;20271;-58
2023/10/20 02:58:56;;;;;;;19.27;14.82;;;14.50;99.90;;;;;;5012582;28;20176;-59
2023/10/20 03:01:21;;;;;;;20.33;15.15;;;14.60;99.90;;;;;;5012616;28;20177;-60
2023/10/20 03:03:47;;;;;;;24.13;15.18;;;14.70;99.90;;;;;;5011244;28;20218;-58
2023/10/20 03:06:13;;;;;;;18.92;13.90;;;14.60;99.90;;;;;;5013101;28;20168;-60
2023/10/20 03:08:39;;;;;;;19.13;13.77;;;14.50;99.90;;;;;;5012445;28;20675;-59
2023/10/20 03:11:06;;;;;;;15.73;12.65;;;14.50;99.90;;;;;;5012299;28;20330;-60
2023/10/20 03:13:32;;;;;;;19.45;13.50;;;14.50;99.90;;;;;;5012344;28;20172;-62
2023/10/20 03:15:57;;;;;;;16.50;13.18;;;14.50;99.90;;;;;;5012176;28;20175;-58
2023/10/20 03:18:23;;;;;;;17.90;13.15;;;14.60;99.90;;;;;;5012360;28;20187;-55
2023/10/20 03:20:49;;;;;;;17.42;13.02;;;14.70;99.90;;;;;;5012581;28;20203;-59
2023/10/20 03:23:15;;;;;;;16.45;12.45;;;14.70;99.90;;;;;;5012524;28;20171;-59
2023/10/20 03:25:42;;;;;;;14.52;12.32;;;14.60;99.90;;;;;;5012847;28;20167;-58
2023/10/20 03:28:08;;;;;;;17.13;12.70;;;14.60;99.90;;;;;;5012434;28;20534;-59
2023/10/20 03:30:40;;;;;;;16.85;11.82;;;14.60;99.90;;;;;;5012092;28;20237;-58
2023/10/20 03:33:07;;;;;;;14.57;12.05;;;14.60;99.90;;;;;;5011891;28;20179;-55
2023/10/20 03:35:32;;;;;;;15.18;11.55;;;14.70;99.90;;;;;;5011298;28;20567;-59
2023/10/20 03:38:00;;;;;;;12.27;10.90;;;14.70;99.90;;;;;;5012139;28;20187;-57
2023/10/20 03:40:40;;;;;;;13.77;11.10;;;14.60;99.90;;;;;;5011791;28;20579;-56
2023/10/20 03:43:08;;;;;;;13.93;10.30;;;14.70;99.90;;;;;;5012219;28;20207;-55
2023/10/20 03:45:51;;;;;;;13.13;10.20;;;14.50;99.90;;;;;;5011809;28;20164;-55
2023/10/20 03:48:19;;;;;;;10.63;9.50;;;14.60;99.90;;;;;;5012050;28;20287;-54
2023/10/20 03:50:46;;;;;;;10.20;9.20;;;14.60;99.90;;;;;;5012546;28;20232;-55
2023/10/20 03:53:18;;;;;;;16.67;8.90;;;14.70;99.90;;;;;;5012161;28;20588;-55
2023/10/20 03:55:44;;;;;;;13.82;9.82;;;14.70;99.90;;;;;;5012246;28;20202;-55
2023/10/20 03:58:10;;;;;;;10.48;8.38;;;14.80;99.90;;;;;;5011805;28;20203;-55
2023/10/20 04:00:37;;;;;;;10.93;9.77;;;14.70;99.90;;;;;;5011785;28;20263;-54
2023/10/20 04:03:03;;;;;;;11.15;8.95;;;14.70;99.90;;;;;;5011941;28;20172;-57
2023/10/20 04:05:28;;;;;;;10.40;7.85;;;14.60;99.90;;;;;;5011781;28;20233;-58
2023/10/20 04:07:54;;;;;;;9.60;7.93;;;14.60;99.90;;;;;;5011576;28;20171;-59
2023/10/20 04:10:20;;;;;;;9.63;8.73;;;14.60;99.90;;;;;;5011378;28;20223;-57
2023/10/20 04:12:46;;;;;;;12.13;8.57;;;14.70;99.90;;;;;;5011552;28;20644;-57
2023/10/20 04:15:15;;;;;;;12.90;8.40;;;14.70;99.90;;;;;;5011926;28;20171;-59
2023/10/20 04:17:44;;;;;;;9.70;8.02;;;14.70;99.90;;;;;;5012188;28;20172;-57
2023/10/20 04:20:15;;;;;;;10.65;8.65;;;14.80;99.90;;;;;;5012015;28;20168;-56
2023/10/20 04:22:49;;;;;;;13.55;8.73;;;14.60;99.90;;;;;;5011992;28;20172;-56
2023/10/20 04:25:22;;;;;;;11.13;8.27;;;14.70;99.90;;;;;;5011993;28;20168;-54
2023/10/20 04:28:01;;;;;;;13.88;9.20;;;14.70;99.90;;;;;;5011227;28;20168;-59
2023/10/20 04:47:36;;;;;;;13.70;9.70;;;14.70;99.90;;;;;;5012755;28;20170;-56
2023/10/20 05:08:04;;;;;;;12.00;9.88;;;14.80;99.90;;;;;;5015042;28;20254;-59
2023/10/20 05:10:29;;;;;;;13.25;9.98;;;14.80;99.90;;;;;;5013161;28;20305;-60
2023/10/20 05:12:55;;;;;;;11.82;9.38;;;14.70;99.90;;;;;;5013551;28;20195;-60
2023/10/20 05:15:21;;;;;;;13.48;9.27;;;14.80;99.90;;;;;;5014511;28;20168;-58
2023/10/20 05:17:47;;;;;;;12.63;9.35;;;14.80;99.90;;;;;;5014531;28;20168;-58
2023/10/20 05:20:19;;;;;;;13.70;9.02;;;14.80;99.90;;;;;;5014874;28;20167;-56
2023/10/20 05:22:46;;;;;;;11.80;8.93;;;14.70;99.90;;;;;;5014611;28;20181;-57
2023/10/20 05:25:11;;;;;;;10.88;9.10;;;14.80;99.90;;;;;;5014679;28;20179;-57
2023/10/20 05:27:37;;;;;;;10.77;8.00;;;14.80;99.90;;;;;;5014127;28;20176;-55
2023/10/20 05:30:03;;;;;;;11.77;9.52;;;14.70;99.90;;;;;;5014024;28;20199;-53
2023/10/20 05:32:31;;;;;;;9.23;8.02;;;14.60;99.90;;;;;;5014000;28;20590;-59
2023/10/20 05:35:04;;;;;;;13.45;10.23;;;14.70;99.90;;;;;;5012823;28;20206;-55
2023/10/20 05:37:33;;;;;;;10.88;8.23;;;14.70;99.90;;;;;;5014338;28;20215;-54
2023/10/20 05:39:58;;;;;;;13.20;7.78;;;14.80;99.90;;;;;;5014033;28;20530;-58
2023/10/20 05:42:24;;;;;;;10.15;8.10;;;14.80;99.90;;;;;;5013927;28;20172;-61
2023/10/20 05:45:02;;;;;;;11.30;7.78;;;14.60;99.90;;;;;;5014476;28;20247;-60
2023/10/20 05:47:31;;;;;;;10.52;8.27;;;14.70;99.90;;;;;;5013931;28;20280;-60
2023/10/20 05:49:57;;;;;;;11.63;7.55;;;14.60;99.90;;;;;;5013823;28;20238;-61
2023/10/20 05:52:23;;;;;;;8.23;7.43;;;14.80;99.90;;;;;;5014038;28;20202;-60
2023/10/20 05:54:49;;;;;;;8.00;7.15;;;14.70;99.90;;;;;;5013974;28;20172;-61
2023/10/20 05:57:16;;;;;;;9.88;7.35;;;14.70;99.90;;;;;;5013798;28;20156;-58
2023/10/20 05:59:42;;;;;;;14.38;9.20;;;14.70;99.90;;;;;;5013379;28;20176;-58
2023/10/20 06:02:08;;;;;;;7.55;6.50;;;14.70;99.90;;;;;;5013565;28;20695;-60
2023/10/20 06:04:34;;;;;;;8.20;6.45;;;14.60;99.90;;;;;;5013544;28;20260;-56
2023/10/20 06:07:01;;;;;;;9.77;6.68;;;14.60;99.90;;;;;;5013537;28;20168;-55
2023/10/20 06:09:27;;;;;;;7.30;6.35;;;14.60;99.90;;;;;;5013524;28;20228;-56
2023/10/20 06:11:53;;;;;;;9.20;6.65;;;14.50;99.90;;;;;;5013717;28;20176;-55
2023/10/20 06:14:20;;;;;;;10.15;7.10;;;14.60;99.90;;;;;;5013460;28;20628;-55
2023/10/20 06:16:46;;;;;;;6.85;6.07;;;14.60;99.90;;;;;;5013544;28;20668;-55
2023/10/20 06:19:11;;;;;;;8.95;6.75;;;14.60;99.90;;;;;;5013731;28;20196;-57
2023/10/20 06:21:38;;;;;;;13.45;9.13;;;14.60;99.90;;;;;;5013214;28;20180;-56
2023/10/20 06:24:04;;;;;;;9.52;7.72;;;14.70;99.90;;;;;;5013447;28;20179;-59
2023/10/20 06:26:29;;;;;;;8.38;6.03;;;14.70;99.90;;;;;;5013272;28;20168;-59
2023/10/20 06:28:55;;;;;;;9.68;6.72;;;14.60;99.90;;;;;;5013123;28;20274;-60
2023/10/20 06:37:07;;;;;;;6.30;5.43;;;14.60;99.90;;;;;;5004412;28;20250;-58
2023/10/20 06:39:33;;;;;;;10.52;7.03;;;14.50;99.90;;;;;;5012927;28;20243;-56
2023/10/20 06:41:58;;;;;;;11.00;6.90;;;14.50;99.90;;;;;;5012963;28;20253;-57
2023/10/20 06:44:24;;;;;;;13.88;7.20;;;14.70;99.90;;;;;;5012888;28;20172;-58
2023/10/20 06:46:51;;;;;;;8.25;5.63;;;14.70;99.90;;;;;;5012889;28;20172;-56
2023/10/20 06:49:18;;;;;;;8.25;6.00;;;14.60;99.90;;;;;;5012969;28;20208;-57
2023/10/20 06:51:45;;;;;;;8.75;5.32;;;14.50;99.90;;;;;;5011978;28;20168;-57
2023/10/20 06:54:16;;;;;;;8.45;5.97;;;14.50;99.90;;;;;;5013184;28;20170;-58
2023/10/20 06:56:41;;;;;;;7.43;6.15;;;14.50;99.90;;;;;;5013122;28;20251;-55
2023/10/20 06:59:08;;;;;;;7.78;6.38;;;14.50;99.90;;;;;;5012583;28;20683;-61
2023/10/20 07:01:33;;;;;;;9.55;6.22;;;14.70;99.90;;;;;;5012757;28;20218;-59
2023/10/20 07:03:59;;;;;;;14.55;9.63;;;14.70;99.90;;;;;;5011229;28;20172;-55
2023/10/20 07:06:25;;;;;;;11.27;7.43;;;14.50;99.90;;;;;;5012436;28;20635;-51
2023/10/20 07:08:50;;;;;;;14.10;7.65;;;14.60;99.90;;;;;;5012648;28;20261;-53
2023/10/20 07:11:16;;;;;;;10.25;7.00;;;14.60;99.90;;;;;;5012320;28;20239;-61
2023/10/20 07:13:44;;;;;;;8.57;6.70;;;14.70;99.90;;;;;;5010007;28;20175;-56
2023/10/20 07:16:13;;;;;;;14.05;8.55;;;14.50;99.90;;;;;;5011161;28;20322;-53
2023/10/20 07:18:39;;;;;;;12.63;7.95;;;14.60;99.90;;;;;;5010437;28;20194;-54
2023/10/20 07:21:05;;;;;;;24.40;12.10;;;14.60;99.90;;;;;;5010603;28;20168;-47
2023/10/20 07:23:32;;;;;;;9.57;7.57;;;14.60;99.90;;;;;;5010235;28;20320;-47
2023/10/20 07:25:57;;;;;;;17.40;10.80;;;14.70;99.90;;;;;;5010663;28;20175;-54
2023/10/20 07:28:23;;;;;;;14.00;7.95;;;14.70;99.90;;;;;;5010631;28;20175;-53
2023/10/20 07:30:49;;;;;;;17.65;9.30;;;14.60;99.90;;;;;;5010139;28;20234;-53
2023/10/20 07:33:14;;;;;;;7.80;6.78;;;14.60;99.90;;;;;;5010915;28;20179;-53
2023/10/20 07:35:42;;;;;;;33.67;14.10;;;14.60;99.90;;;;;;5010556;28;20166;-53
2023/10/20 07:38:08;;;;;;;28.02;12.35;;;14.60;99.90;;;;;;5010043;28;20587;-53
2023/10/20 07:40:37;;;;;;;17.00;10.18;;;14.70;99.90;;;;;;5009988;28;20381;-54
2023/10/20 07:43:06;;;;;;;19.77;12.93;;;14.60;99.90;;;;;;5010301;28;20231;-54
2023/10/20 07:45:36;;;;;;;18.00;11.20;;;14.60;99.90;;;;;;5010095;28;20184;-54
2023/10/20 07:48:05;;;;;;;63.17;30.23;;;14.70;99.90;;;;;;5008904;28;20198;-54
2023/10/20 07:50:30;;;;;;;42.92;24.10;;;14.70;99.90;;;;;;5010047;28;20204;-55
2023/10/20 07:52:56;;;;;;;15.85;10.23;;;14.60;99.90;;;;;;5009859;28;20168;-55
2023/10/20 07:55:21;;;;;;;43.63;21.58;;;14.70;99.90;;;;;;5009882;28;20176;-56
2023/10/20 07:57:47;;;;;;;14.32;10.77;;;14.70;99.90;;;;;;5009799;28;20214;-55
2023/10/20 08:00:13;;;;;;;18.73;12.25;;;14.60;99.90;;;;;;5010225;28;20187;-55
2023/10/20 08:02:39;;;;;;;12.75;9.05;;;14.70;99.90;;;;;;5009843;28;20257;-54
2023/10/20 08:05:05;;;;;;;10.80;7.90;;;14.50;99.90;;;;;;5009794;28;20545;-54
2023/10/20 08:07:31;;;;;;;11.02;8.77;;;14.70;99.90;;;;;;5010002;28;20229;-56
2023/10/20 08:09:57;;;;;;;12.55;9.32;;;14.70;99.90;;;;;;5010248;28;20227;-56
2023/10/20 08:12:22;;;;;;;13.77;9.40;;;14.80;99.90;;;;;;5011113;28;20255;-53
2023/10/20 08:14:49;;;;;;;13.10;10.15;;;14.70;99.90;;;;;;5011567;28;20237;-53
2023/10/20 08:17:14;;;;;;;13.73;9.75;;;14.80;99.90;;;;;;5011503;28;20215;-53
2023/10/20 08:19:44;;;;;;;15.90;11.52;;;14.70;99.90;;;;;;5011900;28;20575;-54
2023/10/20 08:22:10;;;;;;;10.10;8.93;;;14.60;99.90;;;;;;5013994;28;20168;-56
2023/10/20 08:24:35;;;;;;;12.95;9.70;;;14.90;99.90;;;;;;5015642;28;20278;-55
2023/10/20 08:27:01;;;;;;;12.10;10.35;;;14.90;99.90;;;;;;5015682;28;20178;-56
2023/10/20 08:29:27;;;;;;;10.98;9.70;;;14.70;99.90;;;;;;5015420;28;20195;-55
2023/10/20 08:31:52;;;;;;;19.90;13.77;;;14.70;99.90;;;;;;5015570;28;20179;-53
2023/10/20 08:34:18;;;;;;;12.90;10.05;;;14.90;99.90;;;;;;5015491;28;20199;-53
2023/10/20 08:36:44;;;;;;;14.85;11.38;;;14.70;99.90;;;;;;5015648;28;20230;-56
2023/10/20 08:39:19;;;;;;;15.15;12.13;;;14.90;99.90;;;;;;5015580;28;20164;-53
2023/10/20 08:41:45;;;;;;;15.02;10.73;;;14.90;99.90;;;;;;5015059;28;20551;-55
2023/10/20 08:44:14;;;;;;;19.70;13.80;;;14.90;99.90;;;;;;5015735;28;20210;-54
2023/10/20 08:46:41;;;;;;;24.02;15.85;;;14.80;99.90;;;;;;5015702;28;20182;-53
2023/10/20 08:49:07;;;;;;;21.33;15.25;;;14.70;99.90;;;;;;5014938;28;20737;-55
2023/10/20 08:51:35;;;;;;;26.38;16.65;;;14.80;99.90;;;;;;5015285;28;20176;-55
2023/10/20 08:54:01;;;;;;;19.95;15.57;;;14.70;99.90;;;;;;5015050;28;20204;-55
2023/10/20 08:56:27;;;;;;;15.90;12.02;;;14.80;99.90;;;;;;5015039;28;20172;-59
2023/10/20 08:58:53;;;;;;;25.70;16.33;;;14.80;99.90;;;;;;5015158;28;20202;-57
2023/10/20 09:01:19;;;;;;;34.05;20.27;;;14.70;99.90;;;;;;5015004;28;20167;-56
2023/10/20 09:03:48;;;;;;;16.95;12.48;;;14.90;99.90;;;;;;5014778;28;20172;-53
2023/10/20 09:06:14;;;;;;;12.32;9.93;;;14.70;99.90;;;;;;5015574;28;20184;-55
2023/10/20 09:08:47;;;;;;;18.85;13.80;;;14.90;99.90;;;;;;5014987;28;20211;-56
2023/10/20 09:11:13;;;;;;;25.25;17.25;;;14.70;99.90;;;;;;5014897;28;20266;-55
2023/10/20 09:13:43;;;;;;;19.52;13.48;;;14.80;99.90;;;;;;5014536;28;20191;-54
2023/10/20 09:16:10;;;;;;;15.20;11.77;;;14.80;99.90;;;;;;5014733;28;20172;-56
2023/10/20 09:18:50;;;;;;;21.98;14.85;;;14.80;99.90;;;;;;5014422;28;20180;-53
2023/10/20 09:21:18;;;;;;;24.15;15.43;;;14.90;99.90;;;;;;5014621;28;20183;-55
2023/10/20 09:24:01;;;;;;;15.93;10.57;;;14.90;99.90;;;;;;5014741;28;20172;-54
2023/10/20 09:26:29;;;;;;;25.48;16.50;;;15.00;99.90;;;;;;5014358;28;20168;-54
2023/10/20 09:28:56;;;;;;;22.13;14.35;;;14.80;99.90;;;;;;5014231;28;20558;-57
2023/10/20 09:31:22;;;;;;;17.13;12.57;;;15.00;99.90;;;;;;5014136;28;20164;-53
2023/10/20 09:33:49;;;;;;;15.95;11.68;;;14.80;99.90;;;;;;5012816;28;20739;-53
2023/10/20 09:36:15;;;;;;;14.82;11.55;;;14.80;99.90;;;;;;5014276;28;20645;-56
2023/10/20 09:38:44;;;;;;;20.95;12.82;;;14.80;99.90;;;;;;5014636;28;20176;-54
2023/10/20 09:41:15;;;;;;;23.48;14.52;;;16.00;99.90;;;;;;5014827;28;20183;-54
2023/10/20 09:44:02;;;;;;;11.82;9.95;;;14.90;99.90;;;;;;5014825;28;20179;-53
2023/10/20 09:46:53;;;;;;;12.80;9.60;;;14.90;99.90;;;;;;5013970;28;20164;-53
2023/10/20 09:49:24;;;;;;;14.57;10.77;;;14.90;99.90;;;;;;5014031;28;20215;-54
2023/10/20 09:51:50;;;;;;;19.17;14.07;;;14.90;99.90;;;;;;5013859;28;20170;-57
2023/10/20 09:54:24;;;;;;;12.32;9.50;;;15.10;99.90;;;;;;5013670;28;20171;-55
2023/10/20 09:56:51;;;;;;;15.35;11.35;;;15.00;99.90;;;;;;5014008;28;20186;-54
2023/10/20 09:59:20;;;;;;;15.20;12.00;;;14.90;99.90;;;;;;5014010;28;20223;-52
2023/10/20 10:01:47;;;;;;;16.88;11.00;;;15.00;99.90;;;;;;5013769;28;20251;-53
2023/10/20 10:04:13;;;;;;;13.30;10.10;;;15.00;99.90;;;;;;5014063;28;20624;-60
2023/10/20 10:06:42;;;;;;;16.73;10.38;;;15.00;99.90;;;;;;5013802;28;20267;-60
2023/10/20 10:09:08;;;;;;;16.00;12.57;;;14.90;99.90;;;;;;5013342;28;20206;-53
2023/10/20 10:11:42;;;;;;;12.27;9.88;;;15.10;99.90;;;;;;5013613;28;20192;-54
2023/10/20 10:14:16;;;;;;;14.82;9.95;;;15.10;99.90;;;;;;5013340;28;20631;-52
2023/10/20 10:16:53;;;;;;;11.40;9.20;;;15.10;99.90;;;;;;5013772;28;20168;-53
2023/10/20 10:19:19;;;;;;;12.35;9.77;;;15.00;99.90;;;;;;5013541;28;20172;-54
2023/10/20 10:21:52;;;;;;;13.88;8.57;;;15.20;99.90;;;;;;5013287;28;20215;-53
2023/10/20 10:24:18;;;;;;;16.08;12.70;;;15.10;99.90;;;;;;5013281;28;20176;-53
2023/10/20 10:26:57;;;;;;;13.45;9.85;;;15.20;99.90;;;;;;5013822;28;20259;-52
2023/10/20 10:29:58;;;;;;;23.17;11.88;;;15.10;99.90;;;;;;5013096;28;20204;-57
2023/10/20 10:32:30;;;;;;;12.38;9.60;;;15.10;99.90;;;;;;5013382;28;20183;-53
2023/10/20 10:34:58;;;;;;;16.85;10.73;;;15.20;99.90;;;;;;5013251;28;20178;-52
2023/10/20 10:37:37;;;;;;;9.80;8.30;;;15.30;99.90;;;;;;5013221;28;20176;-52
2023/10/20 10:40:07;;;;;;;16.38;9.57;;;15.30;99.90;;;;;;5013206;28;20258;-55
2023/10/20 10:42:41;;;;;;;30.48;14.02;;;15.50;99.90;;;;;;5012854;28;20206;-55
2023/10/20 10:45:16;;;;;;;17.75;10.52;;;15.50;99.90;;;;;;5012293;28;20172;-53
2023/10/20 10:47:42;;;;;;;8.95;7.65;;;15.40;99.90;;;;;;5013425;28;20176;-53
2023/10/20 10:50:08;;;;;;;16.80;9.32;;;15.40;99.90;;;;;;5012549;28;20200;-52
2023/10/20 10:52:34;;;;;;;8.68;7.38;;;15.30;99.90;;;;;;5012629;28;20162;-53
2023/10/20 10:54:59;;;;;;;13.25;10.88;;;15.30;99.90;;;;;;5012825;28;20164;-56
2023/10/20 10:57:25;;;;;;;9.93;8.05;;;15.30;99.90;;;;;;5012668;28;20168;-54
2023/10/20 10:59:50;;;;;;;9.13;8.20;;;15.40;99.90;;;;;;5012824;28;20179;-60
2023/10/20 11:02:16;;;;;;;8.07;6.95;;;15.30;99.90;;;;;;5012321;28;20175;-60
2023/10/20 11:04:42;;;;;;;8.43;7.63;;;15.40;99.90;;;;;;5012896;28;20172;-55
2023/10/20 11:07:08;;;;;;;8.27;6.90;;;15.20;99.90;;;;;;5012579;28;20164;-53
2023/10/20 11:09:35;;;;;;;10.50;7.55;;;15.30;99.90;;;;;;5010790;28;20658;-65
2023/10/20 11:12:01;;;;;;;7.78;6.95;;;15.40;99.90;;;;;;5010625;28;20639;-58
2023/10/20 11:14:27;;;;;;;8.18;7.38;;;15.20;99.90;;;;;;5010405;28;20221;-57
2023/10/20 11:16:53;;;;;;;9.10;7.95;;;15.40;99.90;;;;;;5010472;28;20168;-60
2023/10/20 11:19:21;;;;;;;7.88;6.45;;;15.20;99.90;;;;;;5010643;28;20188;-60
2023/10/20 11:21:53;;;;;;;8.25;7.45;;;15.30;99.90;;;;;;5010352;28;20172;-53
2023/10/20 11:24:28;;;;;;;8.73;7.32;;;15.30;99.90;;;;;;5010253;28;20187;-54
2023/10/20 11:27:01;;;;;;;8.55;7.22;;;15.10;99.90;;;;;;5010083;28;20164;-53
2023/10/20 11:29:28;;;;;;;9.55;7.95;;;15.20;99.90;;;;;;5008917;28;20239;-53
2023/10/20 11:31:55;;;;;;;7.38;6.57;;;15.10;99.90;;;;;;5010471;28;20582;-55
2023/10/20 11:34:20;;;;;;;8.35;7.32;;;15.10;99.90;;;;;;5010139;28;20176;-52
2023/10/20 11:36:46;;;;;;;7.68;6.95;;;15.10;99.90;;;;;;5010528;28;20191;-55
2023/10/20 11:39:12;;;;;;;8.55;7.10;;;15.10;99.90;;;;;;5010352;28;20238;-55
2023/10/20 11:41:37;;;;;;;10.48;7.55;;;15.10;99.90;;;;;;5009873;28;20172;-57
2023/10/20 11:44:03;;;;;;;7.68;6.88;;;15.20;99.90;;;;;;5009913;28;20699;-58
2023/10/20 11:46:29;;;;;;;8.45;7.20;;;15.20;99.90;;;;;;5010092;28;20171;-55
2023/10/20 11:48:54;;;;;;;8.65;7.15;;;15.20;99.90;;;;;;5009613;28;20565;-59
2023/10/20 11:51:20;;;;;;;8.90;7.20;;;15.30;99.90;;;;;;5009940;28;20537;-57
2023/10/20 11:53:46;;;;;;;13.00;8.85;;;15.30;99.90;;;;;;5010264;28;20527;-65
2023/10/20 11:56:11;;;;;;;12.55;8.43;;;15.20;99.90;;;;;;5011397;28;20164;-65
2023/10/20 11:58:37;;;;;;;9.10;7.45;;;15.10;99.90;;;;;;5011596;28;20168;-66
2023/10/20 12:01:03;;;;;;;16.13;11.48;;;15.00;99.90;;;;;;5011398;28;20178;-66
2023/10/20 12:03:29;;;;;;;19.90;14.00;;;15.00;99.90;;;;;;5011330;28;20172;-63
2023/10/20 12:05:55;;;;;;;10.48;9.15;;;15.00;99.90;;;;;;5011329;28;20580;-66
2023/10/20 12:08:20;;;;;;;17.13;13.55;;;15.10;99.90;;;;;;5011498;28;20168;-66
2023/10/20 12:10:46;;;;;;;14.30;9.02;;;15.00;99.90;;;;;;5011521;28;20235;-66
2023/10/20 12:13:12;;;;;;;12.85;8.77;;;15.20;99.90;;;;;;5012080;28;20528;-66
2023/10/20 12:15:38;;;;;;;13.38;11.38;;;15.20;99.90;;;;;;5011460;28;20234;-65
2023/10/20 12:18:05;;;;;;;12.75;11.45;;;15.10;99.90;;;;;;5011041;28;20620;-66
2023/10/20 12:20:31;;;;;;;12.30;10.30;;;15.20;99.90;;;;;;5011611;28;20221;-65
2023/10/20 12:22:58;;;;;;;9.93;8.48;;;15.20;99.90;;;;;;5011507;28;20246;-53
2023/10/20 12:25:25;;;;;;;13.98;10.00;;;15.30;99.90;;;;;;5011533;28;20393;-53
2023/10/20 12:27:51;;;;;;;15.45;13.40;;;15.10;99.90;;;;;;5011399;28;20160;-54
2023/10/20 12:30:17;;;;;;;9.98;8.98;;;15.30;99.90;;;;;;5011182;28;20219;-53
2023/10/20 12:32:43;;;;;;;10.93;7.55;;;15.40;99.90;;;;;;5012087;28;20171;-53
2023/10/20 12:35:11;;;;;;;10.32;7.70;;;15.60;99.90;;;;;;5011615;28;20627;-53
2023/10/20 12:37:37;;;;;;;8.45;6.75;;;15.50;99.90;;;;;;5010014;28;20171;-53
2023/10/20 12:40:03;;;;;;;8.55;6.82;;;15.50;99.90;;;;;;5011339;28;20570;-53
2023/10/20 12:42:29;;;;;;;8.57;7.07;;;15.50;99.90;;;;;;5011325;28;20211;-53
2023/10/20 12:44:55;;;;;;;9.15;7.47;;;15.60;99.90;;;;;;5011540;28;20184;-53
2023/10/20 12:47:22;;;;;;;12.90;7.88;;;15.60;99.90;;;;;;5011327;28;20172;-53
2023/10/20 12:49:48;;;;;;;9.73;8.73;;;15.50;99.90;;;;;;5011133;28;20212;-53
2023/10/20 12:52:13;;;;;;;13.27;8.68;;;15.50;99.90;;;;;;5011611;28;20176;-53
2023/10/20 12:54:39;;;;;;;9.38;8.43;;;15.50;99.90;;;;;;5011546;28;20173;-53
2023/10/20 12:57:05;;;;;;;9.65;8.48;;;15.40;99.90;;;;;;5011107;28;20172;-53
2023/10/20 12:59:31;;;;;;;9.55;8.55;;;15.50;99.90;;;;;;5011107;28;20175;-53
2023/10/20 13:01:56;;;;;;;9.05;8.15;;;15.50;99.90;;;;;;5011113;28;20251;-53
2023/10/20 13:04:22;;;;;;;10.38;9.32;;;15.40;99.90;;;;;;5011135;28;20179;-53
2023/10/20 13:06:48;;;;;;;9.40;7.53;;;15.40;99.90;;;;;;5011123;28;20674;-53
2023/10/20 13:09:14;;;;;;;10.07;9.07;;;15.60;99.90;;;;;;5014599;28;20249;-53
2023/10/20 13:11:40;;;;;;;11.52;8.57;;;15.50;99.90;;;;;;5015382;28;20199;-53
2023/10/20 13:14:05;;;;;;;11.18;8.60;;;15.60;99.90;;;;;;5014576;28;20175;-53